sensor_id;sensor_type;location;lat;lon;timestamp;temperature;humidity
4056;DHT22;2043;52.184;8.690;2023-06-26T00:00:05;22.60;96.70
4056;DHT22;2043;52.184;8.690;2023-06-26T00:02:33;22.70;97.50
4056;DHT22;2043;52.184;8.690;2023-06-26T00:05:00;22.70;97.00
4056;DHT22;2043;52.184;8.690;2023-06-26T00:07:30;22.70;96.50
4056;DHT22;2043;52.184;8.690;2023-06-26T00:09:57;22.70;97.70
4056;DHT22;2043;52.184;8.690;2023-06-26T00:12:25;22.70;97.60
4056;DHT22;2043;52.184;8.690;2023-06-26T00:14:52;22.60;97.10
4056;DHT22;2043;52.184;8.690;2023-06-26T00:17:20;22.60;97.10
4056;DHT22;2043;52.184;8.690;2023-06-26T00:19:47;22.60;97.30
4056;DHT22;2043;52.184;8.690;2023-06-26T00:22:14;22.60;97.90
4056;DHT22;2043;52.184;8.690;2023-06-26T00:24:41;22.60;97.70
4056;DHT22;2043;52.184;8.690;2023-06-26T00:27:07;22.60;97.60
4056;DHT22;2043;52.184;8.690;2023-06-26T00:29:34;22.40;96.70
4056;DHT22;2043;52.184;8.690;2023-06-26T00:32:01;22.40;97.20
4056;DHT22;2043;52.184;8.690;2023-06-26T00:34:28;22.30;96.70
4056;DHT22;2043;52.184;8.690;2023-06-26T00:36:55;22.30;96.90
4056;DHT22;2043;52.184;8.690;2023-06-26T00:39:22;22.30;97.20
4056;DHT22;2043;52.184;8.690;2023-06-26T00:41:52;22.30;96.60
4056;DHT22;2043;52.184;8.690;2023-06-26T00:44:22;22.20;96.60
4056;DHT22;2043;52.184;8.690;2023-06-26T00:46:48;22.20;96.50
4056;DHT22;2043;52.184;8.690;2023-06-26T00:49:15;21.90;96.80
4056;DHT22;2043;52.184;8.690;2023-06-26T00:51:43;21.80;97.40
4056;DHT22;2043;52.184;8.690;2023-06-26T00:54:10;21.80;97.80
4056;DHT22;2043;52.184;8.690;2023-06-26T00:56:40;21.70;97.50
4056;DHT22;2043;52.184;8.690;2023-06-26T00:59:07;21.70;97.60
4056;DHT22;2043;52.184;8.690;2023-06-26T01:01:34;21.70;97.50
4056;DHT22;2043;52.184;8.690;2023-06-26T01:04:01;21.50;97.70
4056;DHT22;2043;52.184;8.690;2023-06-26T01:06:30;21.40;97.80
4056;DHT22;2043;52.184;8.690;2023-06-26T01:08:59;21.40;98.00
4056;DHT22;2043;52.184;8.690;2023-06-26T01:11:26;21.40;98.00
4056;DHT22;2043;52.184;8.690;2023-06-26T01:13:53;21.40;97.90
4056;DHT22;2043;52.184;8.690;2023-06-26T01:16:23;21.50;97.90
4056;DHT22;2043;52.184;8.690;2023-06-26T01:18:51;21.50;97.70
4056;DHT22;2043;52.184;8.690;2023-06-26T01:21:18;21.50;97.50
4056;DHT22;2043;52.184;8.690;2023-06-26T01:24:07;21.50;97.60
4056;DHT22;2043;52.184;8.690;2023-06-26T01:26:38;21.40;97.40
4056;DHT22;2043;52.184;8.690;2023-06-26T01:29:07;21.20;97.60
4056;DHT22;2043;52.184;8.690;2023-06-26T01:31:37;21.20;98.10
4056;DHT22;2043;52.184;8.690;2023-06-26T01:34:04;21.30;98.00
4056;DHT22;2043;52.184;8.690;2023-06-26T01:36:31;21.20;98.20
4056;DHT22;2043;52.184;8.690;2023-06-26T01:38:58;21.30;98.20
4056;DHT22;2043;52.184;8.690;2023-06-26T01:41:25;21.30;98.20
4056;DHT22;2043;52.184;8.690;2023-06-26T01:57:44;21.00;98.50
4056;DHT22;2043;52.184;8.690;2023-06-26T02:00:15;20.90;98.90
4056;DHT22;2043;52.184;8.690;2023-06-26T02:02:44;20.90;99.00
4056;DHT22;2043;52.184;8.690;2023-06-26T02:05:12;20.80;99.10
4056;DHT22;2043;52.184;8.690;2023-06-26T02:07:39;20.80;99.60
4056;DHT22;2043;52.184;8.690;2023-06-26T02:10:06;20.70;99.50
4056;DHT22;2043;52.184;8.690;2023-06-26T02:12:36;20.70;99.80
4056;DHT22;2043;52.184;8.690;2023-06-26T02:15:03;20.70;99.90
4056;DHT22;2043;52.184;8.690;2023-06-26T02:17:30;20.70;99.80
4056;DHT22;2043;52.184;8.690;2023-06-26T02:19:57;20.50;99.90
4056;DHT22;2043;52.184;8.690;2023-06-26T02:22:24;20.50;99.90
4056;DHT22;2043;52.184;8.690;2023-06-26T02:24:51;20.50;99.90
4056;DHT22;2043;52.184;8.690;2023-06-26T02:27:18;20.60;99.90
4056;DHT22;2043;52.184;8.690;2023-06-26T02:29:44;20.50;99.90
4056;DHT22;2043;52.184;8.690;2023-06-26T02:32:11;20.50;99.90
4056;DHT22;2043;52.184;8.690;2023-06-26T02:34:38;20.60;99.90
4056;DHT22;2043;52.184;8.690;2023-06-26T02:37:05;20.60;99.90
4056;DHT22;2043;52.184;8.690;2023-06-26T02:39:34;20.50;99.90
4056;DHT22;2043;52.184;8.690;2023-06-26T02:42:01;20.50;99.90
4056;DHT22;2043;52.184;8.690;2023-06-26T02:44:28;20.50;99.90
4056;DHT22;2043;52.184;8.690;2023-06-26T02:46:55;20.40;99.90
4056;DHT22;2043;52.184;8.690;2023-06-26T02:49:21;20.40;99.80
4056;DHT22;2043;52.184;8.690;2023-06-26T02:51:49;20.10;99.90
4056;DHT22;2043;52.184;8.690;2023-06-26T02:54:16;20.10;99.90
4056;DHT22;2043;52.184;8.690;2023-06-26T02:56:43;20.10;99.90
4056;DHT22;2043;52.184;8.690;2023-06-26T02:59:14;20.10;99.90
4056;DHT22;2043;52.184;8.690;2023-06-26T03:01:41;20.00;99.90
4056;DHT22;2043;52.184;8.690;2023-06-26T03:04:08;20.00;99.90
4056;DHT22;2043;52.184;8.690;2023-06-26T03:06:35;20.00;99.90
4056;DHT22;2043;52.184;8.690;2023-06-26T03:09:02;20.00;99.90
4056;DHT22;2043;52.184;8.690;2023-06-26T03:11:29;20.00;99.90
4056;DHT22;2043;52.184;8.690;2023-06-26T03:13:56;20.00;99.90
4056;DHT22;2043;52.184;8.690;2023-06-26T03:16:23;20.00;99.90
4056;DHT22;2043;52.184;8.690;2023-06-26T03:21:17;20.10;99.90
4056;DHT22;2043;52.184;8.690;2023-06-26T03:23:44;20.10;99.90
4056;DHT22;2043;52.184;8.690;2023-06-26T03:26:11;20.10;99.90
4056;DHT22;2043;52.184;8.690;2023-06-26T03:28:38;20.00;99.90
4056;DHT22;2043;52.184;8.690;2023-06-26T03:31:04;19.90;99.90
4056;DHT22;2043;52.184;8.690;2023-06-26T03:33:31;20.00;99.90
4056;DHT22;2043;52.184;8.690;2023-06-26T03:35:58;20.00;99.90
4056;DHT22;2043;52.184;8.690;2023-06-26T03:38:25;20.00;99.90
4056;DHT22;2043;52.184;8.690;2023-06-26T03:40:52;20.00;99.90
4056;DHT22;2043;52.184;8.690;2023-06-26T03:43:19;20.00;99.90
4056;DHT22;2043;52.184;8.690;2023-06-26T03:45:46;20.10;99.90
4056;DHT22;2043;52.184;8.690;2023-06-26T03:48:13;20.10;99.70
4056;DHT22;2043;52.184;8.690;2023-06-26T03:50:40;20.10;99.80
4056;DHT22;2043;52.184;8.690;2023-06-26T03:53:07;20.10;99.70
4056;DHT22;2043;52.184;8.690;2023-06-26T03:55:34;20.00;99.90
4056;DHT22;2043;52.184;8.690;2023-06-26T03:58:01;20.10;99.90
4056;DHT22;2043;52.184;8.690;2023-06-26T04:00:27;20.10;99.90
4056;DHT22;2043;52.184;8.690;2023-06-26T04:02:55;20.20;99.90
4056;DHT22;2043;52.184;8.690;2023-06-26T04:05:22;20.30;99.90
4056;DHT22;2043;52.184;8.690;2023-06-26T04:07:53;20.40;99.90
4056;DHT22;2043;52.184;8.690;2023-06-26T04:10:20;20.60;99.90
4056;DHT22;2043;52.184;8.690;2023-06-26T04:12:50;20.60;99.90
4056;DHT22;2043;52.184;8.690;2023-06-26T04:15:16;20.80;99.90
4056;DHT22;2043;52.184;8.690;2023-06-26T04:17:43;20.90;99.90
4056;DHT22;2043;52.184;8.690;2023-06-26T04:20:10;20.90;99.90
4056;DHT22;2043;52.184;8.690;2023-06-26T04:22:37;21.00;99.90
4056;DHT22;2043;52.184;8.690;2023-06-26T04:25:04;21.00;99.90
4056;DHT22;2043;52.184;8.690;2023-06-26T04:27:31;21.10;99.90
4056;DHT22;2043;52.184;8.690;2023-06-26T04:30:01;21.20;99.90
4056;DHT22;2043;52.184;8.690;2023-06-26T04:32:28;21.30;99.60
4056;DHT22;2043;52.184;8.690;2023-06-26T04:34:55;21.40;99.30
4056;DHT22;2043;52.184;8.690;2023-06-26T04:37:22;21.40;98.90
4056;DHT22;2043;52.184;8.690;2023-06-26T04:39:49;21.60;98.50
4056;DHT22;2043;52.184;8.690;2023-06-26T04:42:16;21.60;98.20
4056;DHT22;2043;52.184;8.690;2023-06-26T04:44:42;21.70;98.10
4056;DHT22;2043;52.184;8.690;2023-06-26T04:47:09;21.80;97.90
4056;DHT22;2043;52.184;8.690;2023-06-26T04:49:36;21.70;97.80
4056;DHT22;2043;52.184;8.690;2023-06-26T04:52:05;21.80;97.40
4056;DHT22;2043;52.184;8.690;2023-06-26T04:54:31;21.90;97.50
4056;DHT22;2043;52.184;8.690;2023-06-26T04:56:58;21.90;97.50
4056;DHT22;2043;52.184;8.690;2023-06-26T04:59:26;22.00;97.50
4056;DHT22;2043;52.184;8.690;2023-06-26T05:01:53;22.10;97.40
4056;DHT22;2043;52.184;8.690;2023-06-26T05:04:20;22.10;97.10
4056;DHT22;2043;52.184;8.690;2023-06-26T05:06:47;22.20;97.00
4056;DHT22;2043;52.184;8.690;2023-06-26T05:09:13;22.30;96.70
4056;DHT22;2043;52.184;8.690;2023-06-26T05:11:40;22.40;96.30
4056;DHT22;2043;52.184;8.690;2023-06-26T05:14:07;22.50;95.90
4056;DHT22;2043;52.184;8.690;2023-06-26T05:16:34;22.60;95.30
4056;DHT22;2043;52.184;8.690;2023-06-26T05:19:01;22.70;95.60
4056;DHT22;2043;52.184;8.690;2023-06-26T05:21:28;22.70;95.60
4056;DHT22;2043;52.184;8.690;2023-06-26T05:23:57;22.80;94.90
4056;DHT22;2043;52.184;8.690;2023-06-26T05:26:24;22.90;94.60
4056;DHT22;2043;52.184;8.690;2023-06-26T05:28:52;23.10;94.30
4056;DHT22;2043;52.184;8.690;2023-06-26T05:31:19;23.20;93.60
4056;DHT22;2043;52.184;8.690;2023-06-26T05:33:46;23.40;92.90
4056;DHT22;2043;52.184;8.690;2023-06-26T05:36:15;23.50;89.30
4056;DHT22;2043;52.184;8.690;2023-06-26T05:38:43;23.50;89.30
4056;DHT22;2043;52.184;8.690;2023-06-26T05:41:10;23.60;89.00
4056;DHT22;2043;52.184;8.690;2023-06-26T05:43:37;23.60;88.60
4056;DHT22;2043;52.184;8.690;2023-06-26T05:46:04;23.80;88.50
4056;DHT22;2043;52.184;8.690;2023-06-26T05:48:30;23.80;87.30
4056;DHT22;2043;52.184;8.690;2023-06-26T05:50:57;23.80;87.00
4056;DHT22;2043;52.184;8.690;2023-06-26T05:53:25;23.90;86.90
4056;DHT22;2043;52.184;8.690;2023-06-26T05:55:52;24.10;86.50
4056;DHT22;2043;52.184;8.690;2023-06-26T05:58:20;24.10;86.50
4056;DHT22;2043;52.184;8.690;2023-06-26T06:00:47;24.20;85.40
4056;DHT22;2043;52.184;8.690;2023-06-26T06:03:14;24.10;86.00
4056;DHT22;2043;52.184;8.690;2023-06-26T06:05:41;24.10;85.70
4056;DHT22;2043;52.184;8.690;2023-06-26T06:08:08;24.20;85.90
4056;DHT22;2043;52.184;8.690;2023-06-26T06:10:35;24.30;85.50
4056;DHT22;2043;52.184;8.690;2023-06-26T06:13:02;24.30;85.50
4056;DHT22;2043;52.184;8.690;2023-06-26T06:15:29;24.50;86.40
4056;DHT22;2043;52.184;8.690;2023-06-26T06:17:56;24.70;85.80
4056;DHT22;2043;52.184;8.690;2023-06-26T06:20:24;24.80;84.40
4056;DHT22;2043;52.184;8.690;2023-06-26T06:22:51;24.70;83.70
4056;DHT22;2043;52.184;8.690;2023-06-26T06:25:18;24.80;83.60
4056;DHT22;2043;52.184;8.690;2023-06-26T06:27:44;25.00;83.60
4056;DHT22;2043;52.184;8.690;2023-06-26T06:30:11;25.00;82.50
4056;DHT22;2043;52.184;8.690;2023-06-26T06:32:38;25.00;83.00
4056;DHT22;2043;52.184;8.690;2023-06-26T06:35:05;25.10;83.30
4056;DHT22;2043;52.184;8.690;2023-06-26T06:37:37;25.20;82.80
4056;DHT22;2043;52.184;8.690;2023-06-26T06:40:09;25.20;82.40
4056;DHT22;2043;52.184;8.690;2023-06-26T06:42:36;25.20;82.40
4056;DHT22;2043;52.184;8.690;2023-06-26T06:45:03;25.40;82.40
4056;DHT22;2043;52.184;8.690;2023-06-26T06:47:33;25.40;82.90
4056;DHT22;2043;52.184;8.690;2023-06-26T06:50:01;25.20;83.40
4056;DHT22;2043;52.184;8.690;2023-06-26T06:52:38;25.30;83.00
4056;DHT22;2043;52.184;8.690;2023-06-26T06:55:07;25.70;82.70
4056;DHT22;2043;52.184;8.690;2023-06-26T06:57:39;26.00;82.30
4056;DHT22;2043;52.184;8.690;2023-06-26T07:00:08;25.80;82.00
4056;DHT22;2043;52.184;8.690;2023-06-26T07:02:36;25.60;83.30
4056;DHT22;2043;52.184;8.690;2023-06-26T07:05:04;25.90;82.80
4056;DHT22;2043;52.184;8.690;2023-06-26T07:07:32;26.00;82.50
4056;DHT22;2043;52.184;8.690;2023-06-26T07:10:04;26.00;82.60
4056;DHT22;2043;52.184;8.690;2023-06-26T07:12:31;25.90;82.80
4056;DHT22;2043;52.184;8.690;2023-06-26T07:14:58;25.90;82.90
4056;DHT22;2043;52.184;8.690;2023-06-26T07:17:24;26.00;83.40
4056;DHT22;2043;52.184;8.690;2023-06-26T07:19:51;26.00;83.40
4056;DHT22;2043;52.184;8.690;2023-06-26T07:22:18;26.10;83.50
4056;DHT22;2043;52.184;8.690;2023-06-26T07:24:48;25.70;83.20
4056;DHT22;2043;52.184;8.690;2023-06-26T07:27:15;25.70;83.80
4056;DHT22;2043;52.184;8.690;2023-06-26T07:29:43;25.90;84.10
4056;DHT22;2043;52.184;8.690;2023-06-26T07:32:09;26.10;83.90
4056;DHT22;2043;52.184;8.690;2023-06-26T07:34:39;26.10;83.70
4056;DHT22;2043;52.184;8.690;2023-06-26T07:37:07;26.00;84.20
4056;DHT22;2043;52.184;8.690;2023-06-26T07:39:34;25.90;83.80
4056;DHT22;2043;52.184;8.690;2023-06-26T07:42:01;25.60;84.90
4056;DHT22;2043;52.184;8.690;2023-06-26T07:44:27;25.60;84.90
4056;DHT22;2043;52.184;8.690;2023-06-26T07:46:54;25.90;83.90
4056;DHT22;2043;52.184;8.690;2023-06-26T07:49:21;26.20;83.30
4056;DHT22;2043;52.184;8.690;2023-06-26T07:51:48;26.20;83.50
4056;DHT22;2043;52.184;8.690;2023-06-26T07:54:15;26.10;83.60
4056;DHT22;2043;52.184;8.690;2023-06-26T07:56:58;26.10;83.50
4056;DHT22;2043;52.184;8.690;2023-06-26T07:59:26;26.10;83.70
4056;DHT22;2043;52.184;8.690;2023-06-26T08:01:54;26.00;84.30
4056;DHT22;2043;52.184;8.690;2023-06-26T08:04:25;26.20;83.60
4056;DHT22;2043;52.184;8.690;2023-06-26T08:06:54;26.50;83.30
4056;DHT22;2043;52.184;8.690;2023-06-26T08:09:25;26.50;83.30
4056;DHT22;2043;52.184;8.690;2023-06-26T08:11:52;26.50;83.30
4056;DHT22;2043;52.184;8.690;2023-06-26T08:14:19;26.30;84.00
4056;DHT22;2043;52.184;8.690;2023-06-26T08:16:46;26.20;83.90
4056;DHT22;2043;52.184;8.690;2023-06-26T08:19:14;26.10;84.60
4056;DHT22;2043;52.184;8.690;2023-06-26T08:21:42;26.10;85.00
4056;DHT22;2043;52.184;8.690;2023-06-26T08:24:09;25.90;85.40
4056;DHT22;2043;52.184;8.690;2023-06-26T08:26:36;25.90;86.00
4056;DHT22;2043;52.184;8.690;2023-06-26T08:29:03;25.80;86.30
4056;DHT22;2043;52.184;8.690;2023-06-26T08:31:39;25.90;86.30
4056;DHT22;2043;52.184;8.690;2023-06-26T08:34:07;25.50;87.40
4056;DHT22;2043;52.184;8.690;2023-06-26T08:36:34;25.50;87.80
4056;DHT22;2043;52.184;8.690;2023-06-26T08:39:01;25.50;87.90
4056;DHT22;2043;52.184;8.690;2023-06-26T08:41:29;26.00;87.20
4056;DHT22;2043;52.184;8.690;2023-06-26T08:43:56;26.20;85.80
4056;DHT22;2043;52.184;8.690;2023-06-26T08:46:23;25.90;86.00
4056;DHT22;2043;52.184;8.690;2023-06-26T08:48:59;25.60;86.70
4056;DHT22;2043;52.184;8.690;2023-06-26T08:51:28;25.30;87.50
4056;DHT22;2043;52.184;8.690;2023-06-26T08:54:00;25.20;88.10
4056;DHT22;2043;52.184;8.690;2023-06-26T08:56:37;25.10;88.10
4056;DHT22;2043;52.184;8.690;2023-06-26T08:59:06;24.90;88.10
4056;DHT22;2043;52.184;8.690;2023-06-26T09:01:34;24.90;88.10
4056;DHT22;2043;52.184;8.690;2023-06-26T09:06:28;25.60;87.30
4056;DHT22;2043;52.184;8.690;2023-06-26T09:08:55;25.60;87.40
4056;DHT22;2043;52.184;8.690;2023-06-26T09:11:22;25.40;87.40
4056;DHT22;2043;52.184;8.690;2023-06-26T09:13:50;25.20;87.40
4056;DHT22;2043;52.184;8.690;2023-06-26T09:16:17;25.10;87.90
4056;DHT22;2043;52.184;8.690;2023-06-26T09:18:45;25.10;87.60
4056;DHT22;2043;52.184;8.690;2023-06-26T09:21:13;25.30;87.50
4056;DHT22;2043;52.184;8.690;2023-06-26T09:23:40;25.30;87.70
4056;DHT22;2043;52.184;8.690;2023-06-26T09:26:08;25.50;86.90
4056;DHT22;2043;52.184;8.690;2023-06-26T09:28:35;25.60;86.00
4056;DHT22;2043;52.184;8.690;2023-06-26T09:31:04;25.60;86.00
4056;DHT22;2043;52.184;8.690;2023-06-26T09:33:35;25.30;87.00
4056;DHT22;2043;52.184;8.690;2023-06-26T09:36:06;25.40;86.30
4056;DHT22;2043;52.184;8.690;2023-06-26T09:38:35;25.50;85.90
4056;DHT22;2043;52.184;8.690;2023-06-26T09:41:03;25.50;85.90
4056;DHT22;2043;52.184;8.690;2023-06-26T09:43:30;25.60;86.20
4056;DHT22;2043;52.184;8.690;2023-06-26T09:46:00;25.80;85.60
4056;DHT22;2043;52.184;8.690;2023-06-26T09:48:28;26.10;84.10
4056;DHT22;2043;52.184;8.690;2023-06-26T09:50:55;26.40;84.00
4056;DHT22;2043;52.184;8.690;2023-06-26T09:53:38;26.60;83.70
4056;DHT22;2043;52.184;8.690;2023-06-26T09:56:06;26.60;83.10
4056;DHT22;2043;52.184;8.690;2023-06-26T09:58:33;26.20;83.70
4056;DHT22;2043;52.184;8.690;2023-06-26T10:01:02;25.70;84.90
4056;DHT22;2043;52.184;8.690;2023-06-26T10:03:29;25.40;85.60
4056;DHT22;2043;52.184;8.690;2023-06-26T10:05:57;25.30;86.20
4056;DHT22;2043;52.184;8.690;2023-06-26T10:08:26;25.30;85.50
4056;DHT22;2043;52.184;8.690;2023-06-26T10:10:53;25.30;85.40
4056;DHT22;2043;52.184;8.690;2023-06-26T10:13:22;25.50;85.50
4056;DHT22;2043;52.184;8.690;2023-06-26T10:15:51;25.70;84.40
4056;DHT22;2043;52.184;8.690;2023-06-26T10:18:21;25.60;84.20
4056;DHT22;2043;52.184;8.690;2023-06-26T10:20:54;25.50;84.00
4056;DHT22;2043;52.184;8.690;2023-06-26T10:23:23;25.40;84.20
4056;DHT22;2043;52.184;8.690;2023-06-26T10:25:53;25.30;85.20
4056;DHT22;2043;52.184;8.690;2023-06-26T10:28:22;25.30;85.70
4056;DHT22;2043;52.184;8.690;2023-06-26T10:30:51;25.30;85.70
4056;DHT22;2043;52.184;8.690;2023-06-26T10:33:19;25.60;85.20
4056;DHT22;2043;52.184;8.690;2023-06-26T10:35:46;25.60;85.20
4056;DHT22;2043;52.184;8.690;2023-06-26T10:38:13;25.50;85.40
4056;DHT22;2043;52.184;8.690;2023-06-26T10:40:45;25.30;84.20
4056;DHT22;2043;52.184;8.690;2023-06-26T10:43:13;25.00;84.40
4056;DHT22;2043;52.184;8.690;2023-06-26T10:45:47;24.80;84.90
4056;DHT22;2043;52.184;8.690;2023-06-26T10:48:19;24.80;85.40
4056;DHT22;2043;52.184;8.690;2023-06-26T10:50:48;24.90;85.00
4056;DHT22;2043;52.184;8.690;2023-06-26T10:56:03;25.00;83.30
4056;DHT22;2043;52.184;8.690;2023-06-26T10:58:34;25.20;83.10
4056;DHT22;2043;52.184;8.690;2023-06-26T11:01:20;25.30;83.30
4056;DHT22;2043;52.184;8.690;2023-06-26T11:04:05;25.50;83.00
4056;DHT22;2043;52.184;8.690;2023-06-26T11:06:33;25.70;81.10
4056;DHT22;2043;52.184;8.690;2023-06-26T11:09:07;25.70;80.30
4056;DHT22;2043;52.184;8.690;2023-06-26T11:14:32;25.60;79.90
4056;DHT22;2043;52.184;8.690;2023-06-26T11:17:01;25.30;81.00
4056;DHT22;2043;52.184;8.690;2023-06-26T11:19:28;25.20;80.70
4056;DHT22;2043;52.184;8.690;2023-06-26T11:21:59;25.30;81.20
4056;DHT22;2043;52.184;8.690;2023-06-26T11:24:26;25.30;81.10
4056;DHT22;2043;52.184;8.690;2023-06-26T11:26:54;26.10;79.20
4056;DHT22;2043;52.184;8.690;2023-06-26T11:29:25;26.60;78.40
4056;DHT22;2043;52.184;8.690;2023-06-26T11:31:58;26.80;76.60
4056;DHT22;2043;52.184;8.690;2023-06-26T11:34:30;26.50;76.60
4056;DHT22;2043;52.184;8.690;2023-06-26T11:36:57;26.50;75.20
4056;DHT22;2043;52.184;8.690;2023-06-26T11:39:24;26.50;75.20
4056;DHT22;2043;52.184;8.690;2023-06-26T11:41:51;27.10;75.00
4056;DHT22;2043;52.184;8.690;2023-06-26T11:44:18;27.40;74.60
4056;DHT22;2043;52.184;8.690;2023-06-26T11:46:47;27.50;74.60
4056;DHT22;2043;52.184;8.690;2023-06-26T11:49:16;27.50;72.90
4056;DHT22;2043;52.184;8.690;2023-06-26T11:51:43;27.40;72.70
4056;DHT22;2043;52.184;8.690;2023-06-26T11:54:10;27.60;72.70
4056;DHT22;2043;52.184;8.690;2023-06-26T11:56:38;27.80;71.40
4056;DHT22;2043;52.184;8.690;2023-06-26T11:59:07;28.20;71.30
4056;DHT22;2043;52.184;8.690;2023-06-26T12:01:44;28.30;71.40
4056;DHT22;2043;52.184;8.690;2023-06-26T12:04:13;28.30;71.30
4056;DHT22;2043;52.184;8.690;2023-06-26T12:06:47;27.90;72.10
4056;DHT22;2043;52.184;8.690;2023-06-26T12:09:15;28.20;72.00
4056;DHT22;2043;52.184;8.690;2023-06-26T12:11:44;28.40;70.50
4056;DHT22;2043;52.184;8.690;2023-06-26T12:14:11;28.40;70.30
4056;DHT22;2043;52.184;8.690;2023-06-26T12:16:40;28.40;68.10
4056;DHT22;2043;52.184;8.690;2023-06-26T12:19:08;28.40;67.90
4056;DHT22;2043;52.184;8.690;2023-06-26T12:24:06;28.70;69.10
4056;DHT22;2043;52.184;8.690;2023-06-26T12:26:33;28.20;68.90
4056;DHT22;2043;52.184;8.690;2023-06-26T12:29:06;27.70;70.10
4056;DHT22;2043;52.184;8.690;2023-06-26T12:31:34;27.80;70.50
4056;DHT22;2043;52.184;8.690;2023-06-26T12:34:09;27.90;70.40
4056;DHT22;2043;52.184;8.690;2023-06-26T12:36:43;28.50;69.10
4056;DHT22;2043;52.184;8.690;2023-06-26T12:39:11;28.50;69.30
4056;DHT22;2043;52.184;8.690;2023-06-26T12:41:49;28.60;69.30
4056;DHT22;2043;52.184;8.690;2023-06-26T12:44:27;28.90;69.40
4056;DHT22;2043;52.184;8.690;2023-06-26T12:46:58;28.80;69.40
4056;DHT22;2043;52.184;8.690;2023-06-26T12:49:38;28.70;69.80
4056;DHT22;2043;52.184;8.690;2023-06-26T12:52:06;28.60;70.10
4056;DHT22;2043;52.184;8.690;2023-06-26T12:54:34;28.10;70.70
4056;DHT22;2043;52.184;8.690;2023-06-26T12:57:01;27.70;71.80
4056;DHT22;2043;52.184;8.690;2023-06-26T12:59:31;27.70;71.80
4056;DHT22;2043;52.184;8.690;2023-06-26T13:01:59;27.90;71.70
4056;DHT22;2043;52.184;8.690;2023-06-26T13:04:26;28.50;70.40
4056;DHT22;2043;52.184;8.690;2023-06-26T13:06:53;28.50;69.10
4056;DHT22;2043;52.184;8.690;2023-06-26T13:09:25;28.50;69.20
4056;DHT22;2043;52.184;8.690;2023-06-26T13:11:52;28.20;70.50
4056;DHT22;2043;52.184;8.690;2023-06-26T13:14:20;28.10;70.40
4056;DHT22;2043;52.184;8.690;2023-06-26T13:16:47;27.80;70.60
4056;DHT22;2043;52.184;8.690;2023-06-26T13:19:14;27.40;71.70
4056;DHT22;2043;52.184;8.690;2023-06-26T13:21:41;27.30;71.80
4056;DHT22;2043;52.184;8.690;2023-06-26T13:24:08;27.10;71.30
4056;DHT22;2043;52.184;8.690;2023-06-26T13:26:35;26.90;72.00
4056;DHT22;2043;52.184;8.690;2023-06-26T13:29:05;27.00;71.70
4056;DHT22;2043;52.184;8.690;2023-06-26T13:31:32;27.20;71.40
4056;DHT22;2043;52.184;8.690;2023-06-26T13:33:59;27.50;71.00
4056;DHT22;2043;52.184;8.690;2023-06-26T13:36:27;27.20;71.10
4056;DHT22;2043;52.184;8.690;2023-06-26T13:38:54;26.90;70.80
4056;DHT22;2043;52.184;8.690;2023-06-26T13:41:24;26.90;70.90
4056;DHT22;2043;52.184;8.690;2023-06-26T13:43:52;26.70;72.10
4056;DHT22;2043;52.184;8.690;2023-06-26T13:46:21;26.60;72.90
4056;DHT22;2043;52.184;8.690;2023-06-26T13:48:48;26.60;72.90
4056;DHT22;2043;52.184;8.690;2023-06-26T13:51:15;26.90;72.90
4056;DHT22;2043;52.184;8.690;2023-06-26T13:53:41;27.60;72.50
4056;DHT22;2043;52.184;8.690;2023-06-26T13:56:08;27.60;72.20
4056;DHT22;2043;52.184;8.690;2023-06-26T13:58:36;27.50;71.50
4056;DHT22;2043;52.184;8.690;2023-06-26T14:01:03;27.50;71.50
4056;DHT22;2043;52.184;8.690;2023-06-26T14:03:31;26.50;74.40
4056;DHT22;2043;52.184;8.690;2023-06-26T14:05:58;26.50;74.40
4056;DHT22;2043;52.184;8.690;2023-06-26T14:08:25;26.50;74.20
4056;DHT22;2043;52.184;8.690;2023-06-26T14:10:52;26.50;74.20
4056;DHT22;2043;52.184;8.690;2023-06-26T14:13:19;26.60;74.70
4056;DHT22;2043;52.184;8.690;2023-06-26T14:15:49;26.70;73.90
4056;DHT22;2043;52.184;8.690;2023-06-26T14:18:19;26.70;74.10
4056;DHT22;2043;52.184;8.690;2023-06-26T14:20:47;27.00;73.20
4056;DHT22;2043;52.184;8.690;2023-06-26T14:23:14;27.00;73.30
4056;DHT22;2043;52.184;8.690;2023-06-26T14:25:41;26.80;73.70
4056;DHT22;2043;52.184;8.690;2023-06-26T14:28:08;26.20;74.00
4056;DHT22;2043;52.184;8.690;2023-06-26T14:30:35;26.10;74.80
4056;DHT22;2043;52.184;8.690;2023-06-26T14:33:01;26.10;74.70
4056;DHT22;2043;52.184;8.690;2023-06-26T14:35:28;25.80;74.20
4056;DHT22;2043;52.184;8.690;2023-06-26T14:37:55;26.10;73.60
4056;DHT22;2043;52.184;8.690;2023-06-26T14:40:22;26.30;73.00
4056;DHT22;2043;52.184;8.690;2023-06-26T14:42:49;26.60;73.70
4056;DHT22;2043;52.184;8.690;2023-06-26T14:45:16;26.90;71.90
4056;DHT22;2043;52.184;8.690;2023-06-26T14:47:44;27.30;71.40
4056;DHT22;2043;52.184;8.690;2023-06-26T14:50:10;27.00;70.70
4056;DHT22;2043;52.184;8.690;2023-06-26T14:52:37;26.90;70.90
4056;DHT22;2043;52.184;8.690;2023-06-26T14:55:04;26.60;70.80
4056;DHT22;2043;52.184;8.690;2023-06-26T14:57:34;25.90;71.40
4056;DHT22;2043;52.184;8.690;2023-06-26T15:00:01;26.00;73.20
4056;DHT22;2043;52.184;8.690;2023-06-26T15:02:28;26.10;72.00
4056;DHT22;2043;52.184;8.690;2023-06-26T15:04:54;26.30;70.80
4056;DHT22;2043;52.184;8.690;2023-06-26T15:07:21;26.00;70.20
4056;DHT22;2043;52.184;8.690;2023-06-26T15:09:48;25.90;70.00
4056;DHT22;2043;52.184;8.690;2023-06-26T15:12:15;25.80;70.00
4056;DHT22;2043;52.184;8.690;2023-06-26T15:14:42;25.60;70.30
4056;DHT22;2043;52.184;8.690;2023-06-26T15:17:08;25.40;70.80
4056;DHT22;2043;52.184;8.690;2023-06-26T15:19:36;25.40;70.80
4056;DHT22;2043;52.184;8.690;2023-06-26T15:22:03;25.30;70.90
4056;DHT22;2043;52.184;8.690;2023-06-26T15:24:30;25.50;70.50
4056;DHT22;2043;52.184;8.690;2023-06-26T15:26:57;25.50;70.20
4056;DHT22;2043;52.184;8.690;2023-06-26T15:29:23;25.50;69.50
4056;DHT22;2043;52.184;8.690;2023-06-26T15:31:51;25.60;68.90
4056;DHT22;2043;52.184;8.690;2023-06-26T15:34:18;25.60;69.30
4056;DHT22;2043;52.184;8.690;2023-06-26T15:36:45;25.60;69.50
4056;DHT22;2043;52.184;8.690;2023-06-26T15:39:12;25.70;70.30
4056;DHT22;2043;52.184;8.690;2023-06-26T15:41:38;25.80;69.10
4056;DHT22;2043;52.184;8.690;2023-06-26T15:44:05;26.00;69.50
4056;DHT22;2043;52.184;8.690;2023-06-26T15:46:32;26.00;68.30
4056;DHT22;2043;52.184;8.690;2023-06-26T15:48:59;25.80;69.40
4056;DHT22;2043;52.184;8.690;2023-06-26T15:51:26;25.70;69.20
4056;DHT22;2043;52.184;8.690;2023-06-26T15:53:53;25.50;69.50
4056;DHT22;2043;52.184;8.690;2023-06-26T15:56:19;25.40;69.20
4056;DHT22;2043;52.184;8.690;2023-06-26T15:58:46;25.10;69.70
4056;DHT22;2043;52.184;8.690;2023-06-26T16:01:15;25.00;69.40
4056;DHT22;2043;52.184;8.690;2023-06-26T16:03:42;24.70;69.10
4056;DHT22;2043;52.184;8.690;2023-06-26T16:06:09;24.70;69.10
4056;DHT22;2043;52.184;8.690;2023-06-26T16:08:37;24.70;69.80
4056;DHT22;2043;52.184;8.690;2023-06-26T16:11:04;24.70;68.90
4056;DHT22;2043;52.184;8.690;2023-06-26T16:13:32;24.60;69.60
4056;DHT22;2043;52.184;8.690;2023-06-26T16:15:59;24.50;69.60
4056;DHT22;2043;52.184;8.690;2023-06-26T16:18:26;24.60;70.00
4056;DHT22;2043;52.184;8.690;2023-06-26T16:20:54;24.70;70.10
4056;DHT22;2043;52.184;8.690;2023-06-26T16:23:21;24.90;70.20
4056;DHT22;2043;52.184;8.690;2023-06-26T16:25:49;24.80;69.60
4056;DHT22;2043;52.184;8.690;2023-06-26T16:28:16;24.80;69.90
4056;DHT22;2043;52.184;8.690;2023-06-26T16:30:43;24.80;69.90
4056;DHT22;2043;52.184;8.690;2023-06-26T16:33:10;24.80;69.90